sensor_id;sensor_type;location;lat;lon;timestamp;P1;durP1;ratioP1;P2;durP2;ratioP2
56517;SDS011;42419;48.760;2.322;2022-11-25T00:01:48;3.27;;;2.40;;
56517;SDS011;42419;48.760;2.322;2022-11-25T00:04:14;5.03;;;3.10;;
56517;SDS011;42419;48.760;2.322;2022-11-25T00:06:40;4.30;;;2.60;;
56517;SDS011;42419;48.760;2.322;2022-11-25T00:09:09;3.93;;;2.80;;
56517;SDS011;42419;48.760;2.322;2022-11-25T00:11:36;5.17;;;3.20;;
56517;SDS011;42419;48.760;2.322;2022-11-25T00:14:04;3.67;;;2.67;;
56517;SDS011;42419;48.760;2.322;2022-11-25T00:16:30;4.87;;;2.90;;
56517;SDS011;42419;48.760;2.322;2022-11-25T00:18:55;3.80;;;2.40;;
56517;SDS011;42419;48.760;2.322;2022-11-25T00:21:22;4.50;;;2.70;;
56517;SDS011;42419;48.760;2.322;2022-11-25T00:23:50;5.40;;;2.90;;
56517;SDS011;42419;48.760;2.322;2022-11-25T00:26:17;6.50;;;3.00;;
56517;SDS011;42419;48.760;2.322;2022-11-25T00:28:44;3.80;;;2.70;;
56517;SDS011;42419;48.760;2.322;2022-11-25T00:31:11;5.37;;;2.80;;
56517;SDS011;42419;48.760;2.322;2022-11-25T00:33:44;4.47;;;2.70;;
56517;SDS011;42419;48.760;2.322;2022-11-25T00:36:20;6.17;;;2.40;;
56517;SDS011;42419;48.760;2.322;2022-11-25T00:38:51;6.47;;;3.20;;
56517;SDS011;42419;48.760;2.322;2022-11-25T00:41:19;4.40;;;2.73;;
56517;SDS011;42419;48.760;2.322;2022-11-25T00:44:03;4.97;;;3.10;;
56517;SDS011;42419;48.760;2.322;2022-11-25T00:46:47;4.23;;;2.50;;
56517;SDS011;42419;48.760;2.322;2022-11-25T00:49:12;4.50;;;2.90;;
56517;SDS011;42419;48.760;2.322;2022-11-25T00:51:37;4.47;;;2.53;;
56517;SDS011;42419;48.760;2.322;2022-11-25T00:54:03;3.43;;;2.40;;
56517;SDS011;42419;48.760;2.322;2022-11-25T00:56:28;4.97;;;2.60;;
56517;SDS011;42419;48.760;2.322;2022-11-25T00:58:54;4.90;;;2.73;;
56517;SDS011;42419;48.760;2.322;2022-11-25T01:01:19;2.87;;;2.40;;
56517;SDS011;42419;48.760;2.322;2022-11-25T01:03:47;3.93;;;2.67;;
56517;SDS011;42419;48.760;2.322;2022-11-25T01:06:13;3.53;;;2.30;;
56517;SDS011;42419;48.760;2.322;2022-11-25T01:08:38;4.50;;;2.30;;
56517;SDS011;42419;48.760;2.322;2022-11-25T01:11:05;4.90;;;2.87;;
56517;SDS011;42419;48.760;2.322;2022-11-25T01:13:38;3.90;;;2.77;;
56517;SDS011;42419;48.760;2.322;2022-11-25T01:16:04;4.80;;;2.97;;
56517;SDS011;42419;48.760;2.322;2022-11-25T01:18:30;4.87;;;2.77;;
56517;SDS011;42419;48.760;2.322;2022-11-25T01:23:34;3.93;;;2.63;;
56517;SDS011;42419;48.760;2.322;2022-11-25T01:26:00;3.80;;;2.63;;
56517;SDS011;42419;48.760;2.322;2022-11-25T01:28:30;4.27;;;2.87;;
56517;SDS011;42419;48.760;2.322;2022-11-25T01:30:59;3.97;;;2.40;;
56517;SDS011;42419;48.760;2.322;2022-11-25T01:33:25;2.43;;;2.23;;
56517;SDS011;42419;48.760;2.322;2022-11-25T01:35:50;6.33;;;2.47;;
56517;SDS011;42419;48.760;2.322;2022-11-25T01:38:15;3.60;;;2.50;;
56517;SDS011;42419;48.760;2.322;2022-11-25T01:40:41;4.50;;;2.20;;
56517;SDS011;42419;48.760;2.322;2022-11-25T01:43:10;6.37;;;2.80;;
56517;SDS011;42419;48.760;2.322;2022-11-25T01:45:38;3.60;;;2.70;;
56517;SDS011;42419;48.760;2.322;2022-11-25T01:48:15;3.90;;;2.47;;
56517;SDS011;42419;48.760;2.322;2022-11-25T01:50:45;5.67;;;2.80;;
56517;SDS011;42419;48.760;2.322;2022-11-25T01:53:12;3.60;;;2.30;;
56517;SDS011;42419;48.760;2.322;2022-11-25T01:55:41;2.80;;;2.03;;
56517;SDS011;42419;48.760;2.322;2022-11-25T01:58:16;2.90;;;2.47;;
56517;SDS011;42419;48.760;2.322;2022-11-25T02:00:44;3.50;;;2.53;;
56517;SDS011;42419;48.760;2.322;2022-11-25T02:03:17;2.40;;;2.20;;
56517;SDS011;42419;48.760;2.322;2022-11-25T02:06:03;3.37;;;2.33;;
56517;SDS011;42419;48.760;2.322;2022-11-25T02:08:35;3.63;;;2.40;;
56517;SDS011;42419;48.760;2.322;2022-11-25T02:11:01;4.87;;;2.20;;
56517;SDS011;42419;48.760;2.322;2022-11-25T02:13:28;3.50;;;2.00;;
56517;SDS011;42419;48.760;2.322;2022-11-25T02:15:55;3.30;;;2.30;;
56517;SDS011;42419;48.760;2.322;2022-11-25T02:18:20;3.73;;;2.47;;
56517;SDS011;42419;48.760;2.322;2022-11-25T02:20:46;2.93;;;2.00;;
56517;SDS011;42419;48.760;2.322;2022-11-25T02:26:19;3.30;;;2.10;;
56517;SDS011;42419;48.760;2.322;2022-11-25T02:28:44;4.03;;;2.90;;
56517;SDS011;42419;48.760;2.322;2022-11-25T02:31:11;4.30;;;2.60;;
56517;SDS011;42419;48.760;2.322;2022-11-25T02:33:36;3.30;;;2.13;;
56517;SDS011;42419;48.760;2.322;2022-11-25T02:36:02;3.37;;;2.30;;
56517;SDS011;42419;48.760;2.322;2022-11-25T02:43:33;4.87;;;2.77;;
56517;SDS011;42419;48.760;2.322;2022-11-25T02:46:06;3.83;;;2.57;;
56517;SDS011;42419;48.760;2.322;2022-11-25T02:48:34;4.30;;;2.53;;
56517;SDS011;42419;48.760;2.322;2022-11-25T02:51:01;4.67;;;2.67;;
56517;SDS011;42419;48.760;2.322;2022-11-25T02:53:27;2.47;;;2.03;;
56517;SDS011;42419;48.760;2.322;2022-11-25T02:55:53;3.50;;;2.13;;
56517;SDS011;42419;48.760;2.322;2022-11-25T02:58:18;2.53;;;1.93;;
56517;SDS011;42419;48.760;2.322;2022-11-25T03:00:45;2.40;;;2.13;;
56517;SDS011;42419;48.760;2.322;2022-11-25T03:03:11;2.93;;;2.37;;
56517;SDS011;42419;48.760;2.322;2022-11-25T03:05:36;4.53;;;2.40;;
56517;SDS011;42419;48.760;2.322;2022-11-25T03:08:02;3.67;;;2.50;;
56517;SDS011;42419;48.760;2.322;2022-11-25T03:10:28;4.00;;;2.90;;
56517;SDS011;42419;48.760;2.322;2022-11-25T03:12:54;2.93;;;2.50;;
56517;SDS011;42419;48.760;2.322;2022-11-25T03:15:19;4.53;;;2.30;;
56517;SDS011;42419;48.760;2.322;2022-11-25T03:17:46;3.30;;;2.57;;
56517;SDS011;42419;48.760;2.322;2022-11-25T03:20:11;2.77;;;2.27;;
56517;SDS011;42419;48.760;2.322;2022-11-25T03:22:37;2.80;;;2.20;;
56517;SDS011;42419;48.760;2.322;2022-11-25T03:25:03;3.50;;;2.60;;
56517;SDS011;42419;48.760;2.322;2022-11-25T03:27:28;3.23;;;2.13;;
56517;SDS011;42419;48.760;2.322;2022-11-25T03:29:54;2.70;;;2.20;;
56517;SDS011;42419;48.760;2.322;2022-11-25T03:32:19;2.90;;;2.17;;
56517;SDS011;42419;48.760;2.322;2022-11-25T03:34:44;4.17;;;2.07;;
56517;SDS011;42419;48.760;2.322;2022-11-25T03:37:10;2.43;;;2.00;;
56517;SDS011;42419;48.760;2.322;2022-11-25T03:39:35;3.20;;;2.17;;
56517;SDS011;42419;48.760;2.322;2022-11-25T03:42:01;2.43;;;2.10;;
56517;SDS011;42419;48.760;2.322;2022-11-25T03:44:26;3.90;;;2.03;;
56517;SDS011;42419;48.760;2.322;2022-11-25T03:46:51;3.93;;;2.33;;
56517;SDS011;42419;48.760;2.322;2022-11-25T03:49:17;5.40;;;2.37;;
56517;SDS011;42419;48.760;2.322;2022-11-25T03:51:43;3.30;;;2.27;;
56517;SDS011;42419;48.760;2.322;2022-11-25T03:54:08;2.80;;;2.03;;
56517;SDS011;42419;48.760;2.322;2022-11-25T03:56:33;2.43;;;1.90;;
56517;SDS011;42419;48.760;2.322;2022-11-25T03:58:59;2.60;;;2.03;;
56517;SDS011;42419;48.760;2.322;2022-11-25T04:01:24;4.27;;;2.37;;
56517;SDS011;42419;48.760;2.322;2022-11-25T04:03:49;4.40;;;2.57;;
56517;SDS011;42419;48.760;2.322;2022-11-25T04:06:15;4.30;;;2.57;;
56517;SDS011;42419;48.760;2.322;2022-11-25T04:08:43;5.10;;;2.63;;
56517;SDS011;42419;48.760;2.322;2022-11-25T04:11:09;2.77;;;1.93;;
56517;SDS011;42419;48.760;2.322;2022-11-25T04:13:34;3.70;;;2.20;;
56517;SDS011;42419;48.760;2.322;2022-11-25T04:15:59;2.60;;;2.40;;
56517;SDS011;42419;48.760;2.322;2022-11-25T04:18:25;3.50;;;2.17;;
56517;SDS011;42419;48.760;2.322;2022-11-25T04:20:50;4.43;;;2.40;;
56517;SDS011;42419;48.760;2.322;2022-11-25T04:23:15;3.80;;;2.40;;
56517;SDS011;42419;48.760;2.322;2022-11-25T04:25:41;4.00;;;2.30;;
56517;SDS011;42419;48.760;2.322;2022-11-25T04:28:06;4.30;;;2.17;;
56517;SDS011;42419;48.760;2.322;2022-11-25T04:30:32;3.37;;;2.00;;
56517;SDS011;42419;48.760;2.322;2022-11-25T04:32:57;3.10;;;2.10;;
56517;SDS011;42419;48.760;2.322;2022-11-25T04:35:22;3.27;;;1.90;;
56517;SDS011;42419;48.760;2.322;2022-11-25T04:37:48;2.60;;;2.13;;
56517;SDS011;42419;48.760;2.322;2022-11-25T04:40:14;2.40;;;2.20;;
56517;SDS011;42419;48.760;2.322;2022-11-25T04:42:39;2.20;;;1.90;;
56517;SDS011;42419;48.760;2.322;2022-11-25T04:45:08;2.93;;;2.10;;
56517;SDS011;42419;48.760;2.322;2022-11-25T04:47:36;3.07;;;2.40;;
56517;SDS011;42419;48.760;2.322;2022-11-25T04:50:02;2.93;;;1.77;;
56517;SDS011;42419;48.760;2.322;2022-11-25T04:52:29;3.03;;;2.17;;
56517;SDS011;42419;48.760;2.322;2022-11-25T04:54:54;3.63;;;2.23;;
56517;SDS011;42419;48.760;2.322;2022-11-25T04:57:19;3.23;;;1.90;;
56517;SDS011;42419;48.760;2.322;2022-11-25T04:59:45;2.97;;;2.33;;
56517;SDS011;42419;48.760;2.322;2022-11-25T05:04:47;2.67;;;2.07;;
56517;SDS011;42419;48.760;2.322;2022-11-25T05:07:14;4.70;;;2.50;;
56517;SDS011;42419;48.760;2.322;2022-11-25T05:09:41;5.23;;;2.60;;
56517;SDS011;42419;48.760;2.322;2022-11-25T05:12:07;4.80;;;2.33;;
56517;SDS011;42419;48.760;2.322;2022-11-25T05:14:36;3.03;;;2.00;;
56517;SDS011;42419;48.760;2.322;2022-11-25T05:17:02;3.13;;;1.90;;
56517;SDS011;42419;48.760;2.322;2022-11-25T05:19:28;5.00;;;2.57;;
56517;SDS011;42419;48.760;2.322;2022-11-25T05:21:53;3.20;;;2.33;;
56517;SDS011;42419;48.760;2.322;2022-11-25T05:24:19;3.03;;;2.40;;
56517;SDS011;42419;48.760;2.322;2022-11-25T05:26:44;3.60;;;2.80;;
56517;SDS011;42419;48.760;2.322;2022-11-25T05:29:10;4.60;;;2.10;;
56517;SDS011;42419;48.760;2.322;2022-11-25T05:31:35;4.60;;;2.33;;
56517;SDS011;42419;48.760;2.322;2022-11-25T05:34:01;2.97;;;2.00;;
56517;SDS011;42419;48.760;2.322;2022-11-25T05:36:27;3.17;;;2.13;;
56517;SDS011;42419;48.760;2.322;2022-11-25T05:38:54;2.50;;;1.97;;
56517;SDS011;42419;48.760;2.322;2022-11-25T05:41:20;3.00;;;2.10;;
56517;SDS011;42419;48.760;2.322;2022-11-25T05:43:45;2.97;;;2.30;;
56517;SDS011;42419;48.760;2.322;2022-11-25T05:46:11;3.27;;;2.30;;
56517;SDS011;42419;48.760;2.322;2022-11-25T05:48:36;3.63;;;2.20;;
56517;SDS011;42419;48.760;2.322;2022-11-25T05:51:02;4.10;;;2.63;;
56517;SDS011;42419;48.760;2.322;2022-11-25T05:53:28;3.00;;;2.20;;
56517;SDS011;42419;48.760;2.322;2022-11-25T05:55:55;3.63;;;2.50;;
56517;SDS011;42419;48.760;2.322;2022-11-25T05:58:22;4.30;;;2.50;;
56517;SDS011;42419;48.760;2.322;2022-11-25T06:00:48;5.37;;;2.73;;
56517;SDS011;42419;48.760;2.322;2022-11-25T06:03:13;3.43;;;2.23;;
56517;SDS011;42419;48.760;2.322;2022-11-25T06:05:39;3.97;;;2.50;;
56517;SDS011;42419;48.760;2.322;2022-11-25T06:08:05;4.97;;;2.40;;
56517;SDS011;42419;48.760;2.322;2022-11-25T06:10:31;3.03;;;2.10;;
56517;SDS011;42419;48.760;2.322;2022-11-25T06:12:57;3.73;;;2.57;;
56517;SDS011;42419;48.760;2.322;2022-11-25T06:15:22;4.47;;;2.83;;
56517;SDS011;42419;48.760;2.322;2022-11-25T06:17:47;3.83;;;2.93;;
56517;SDS011;42419;48.760;2.322;2022-11-25T06:20:12;2.60;;;2.10;;
56517;SDS011;42419;48.760;2.322;2022-11-25T06:22:38;3.90;;;2.57;;
56517;SDS011;42419;48.760;2.322;2022-11-25T06:25:03;3.63;;;2.53;;
56517;SDS011;42419;48.760;2.322;2022-11-25T06:27:29;3.40;;;2.67;;
56517;SDS011;42419;48.760;2.322;2022-11-25T06:29:54;3.00;;;2.13;;
56517;SDS011;42419;48.760;2.322;2022-11-25T06:32:20;4.07;;;2.37;;
56517;SDS011;42419;48.760;2.322;2022-11-25T06:34:45;3.63;;;2.33;;
56517;SDS011;42419;48.760;2.322;2022-11-25T06:37:10;4.73;;;2.67;;
56517;SDS011;42419;48.760;2.322;2022-11-25T06:39:38;3.00;;;2.60;;
56517;SDS011;42419;48.760;2.322;2022-11-25T06:42:03;4.23;;;2.67;;
56517;SDS011;42419;48.760;2.322;2022-11-25T06:44:29;6.67;;;3.60;;
56517;SDS011;42419;48.760;2.322;2022-11-25T06:46:54;7.20;;;3.67;;
56517;SDS011;42419;48.760;2.322;2022-11-25T06:49:19;4.47;;;3.10;;
56517;SDS011;42419;48.760;2.322;2022-11-25T06:51:45;7.90;;;4.53;;
56517;SDS011;42419;48.760;2.322;2022-11-25T06:54:10;11.53;;;4.50;;
56517;SDS011;42419;48.760;2.322;2022-11-25T06:56:35;11.53;;;3.77;;
56517;SDS011;42419;48.760;2.322;2022-11-25T06:59:01;9.93;;;3.70;;
56517;SDS011;42419;48.760;2.322;2022-11-25T07:01:28;7.57;;;3.57;;
56517;SDS011;42419;48.760;2.322;2022-11-25T07:03:58;6.00;;;3.97;;
56517;SDS011;42419;48.760;2.322;2022-11-25T07:06:27;6.63;;;3.57;;
56517;SDS011;42419;48.760;2.322;2022-11-25T07:08:52;5.83;;;3.57;;
56517;SDS011;42419;48.760;2.322;2022-11-25T07:11:22;4.10;;;3.10;;
56517;SDS011;42419;48.760;2.322;2022-11-25T07:14:06;10.10;;;3.93;;
56517;SDS011;42419;48.760;2.322;2022-11-25T07:16:35;6.60;;;3.80;;
56517;SDS011;42419;48.760;2.322;2022-11-25T07:19:02;7.83;;;3.57;;
56517;SDS011;42419;48.760;2.322;2022-11-25T07:21:28;6.33;;;3.40;;
56517;SDS011;42419;48.760;2.322;2022-11-25T07:23:54;6.20;;;3.60;;
56517;SDS011;42419;48.760;2.322;2022-11-25T07:26:23;5.53;;;3.53;;
56517;SDS011;42419;48.760;2.322;2022-11-25T07:28:50;8.80;;;3.47;;
56517;SDS011;42419;48.760;2.322;2022-11-25T07:33:46;4.93;;;3.20;;
56517;SDS011;42419;48.760;2.322;2022-11-25T07:36:13;9.40;;;4.03;;
56517;SDS011;42419;48.760;2.322;2022-11-25T07:38:39;5.13;;;3.20;;
56517;SDS011;42419;48.760;2.322;2022-11-25T07:41:06;6.03;;;3.17;;
56517;SDS011;42419;48.760;2.322;2022-11-25T07:43:33;4.43;;;3.33;;
56517;SDS011;42419;48.760;2.322;2022-11-25T07:46:09;5.13;;;3.43;;
56517;SDS011;42419;48.760;2.322;2022-11-25T07:48:40;5.67;;;3.40;;
56517;SDS011;42419;48.760;2.322;2022-11-25T07:51:16;4.90;;;3.33;;
56517;SDS011;42419;48.760;2.322;2022-11-25T07:53:43;6.43;;;3.23;;
56517;SDS011;42419;48.760;2.322;2022-11-25T07:56:09;6.00;;;3.53;;
56517;SDS011;42419;48.760;2.322;2022-11-25T07:58:35;7.37;;;3.50;;
56517;SDS011;42419;48.760;2.322;2022-11-25T08:01:01;6.83;;;3.23;;
56517;SDS011;42419;48.760;2.322;2022-11-25T08:03:31;5.60;;;3.40;;
56517;SDS011;42419;48.760;2.322;2022-11-25T08:06:01;8.47;;;3.30;;
56517;SDS011;42419;48.760;2.322;2022-11-25T08:08:28;7.10;;;3.30;;
56517;SDS011;42419;48.760;2.322;2022-11-25T08:10:53;6.27;;;3.57;;
56517;SDS011;42419;48.760;2.322;2022-11-25T08:13:19;6.10;;;3.23;;
56517;SDS011;42419;48.760;2.322;2022-11-25T08:15:44;6.10;;;3.17;;
56517;SDS011;42419;48.760;2.322;2022-11-25T08:18:10;5.40;;;3.00;;
56517;SDS011;42419;48.760;2.322;2022-11-25T08:20:36;5.73;;;3.10;;
56517;SDS011;42419;48.760;2.322;2022-11-25T08:23:01;5.97;;;3.57;;
56517;SDS011;42419;48.760;2.322;2022-11-25T08:25:26;5.20;;;2.70;;
56517;SDS011;42419;48.760;2.322;2022-11-25T08:27:53;5.10;;;3.10;;
56517;SDS011;42419;48.760;2.322;2022-11-25T08:30:19;5.63;;;3.63;;
56517;SDS011;42419;48.760;2.322;2022-11-25T08:32:47;7.13;;;3.53;;
56517;SDS011;42419;48.760;2.322;2022-11-25T08:35:13;4.20;;;2.90;;
56517;SDS011;42419;48.760;2.322;2022-11-25T08:37:38;5.00;;;3.50;;
56517;SDS011;42419;48.760;2.322;2022-11-25T08:40:04;4.70;;;3.27;;
56517;SDS011;42419;48.760;2.322;2022-11-25T08:42:30;6.03;;;3.20;;
56517;SDS011;42419;48.760;2.322;2022-11-25T08:44:55;5.50;;;3.20;;
56517;SDS011;42419;48.760;2.322;2022-11-25T08:47:21;7.37;;;3.87;;
56517;SDS011;42419;48.760;2.322;2022-11-25T08:49:53;4.27;;;3.03;;
56517;SDS011;42419;48.760;2.322;2022-11-25T08:52:19;8.37;;;3.87;;
56517;SDS011;42419;48.760;2.322;2022-11-25T08:54:45;5.33;;;3.43;;
56517;SDS011;42419;48.760;2.322;2022-11-25T08:57:11;6.40;;;3.13;;
56517;SDS011;42419;48.760;2.322;2022-11-25T08:59:37;4.97;;;3.33;;
56517;SDS011;42419;48.760;2.322;2022-11-25T09:02:02;4.00;;;3.03;;
56517;SDS011;42419;48.760;2.322;2022-11-25T09:04:28;6.83;;;3.47;;
56517;SDS011;42419;48.760;2.322;2022-11-25T09:06:53;3.90;;;2.93;;
56517;SDS011;42419;48.760;2.322;2022-11-25T09:09:19;5.33;;;3.33;;
56517;SDS011;42419;48.760;2.322;2022-11-25T09:11:44;4.93;;;3.27;;
56517;SDS011;42419;48.760;2.322;2022-11-25T09:14:09;5.00;;;3.30;;
56517;SDS011;42419;48.760;2.322;2022-11-25T09:16:35;6.40;;;3.03;;
56517;SDS011;42419;48.760;2.322;2022-11-25T09:19:00;5.00;;;3.07;;
56517;SDS011;42419;48.760;2.322;2022-11-25T09:21:25;4.13;;;2.90;;
56517;SDS011;42419;48.760;2.322;2022-11-25T09:23:51;4.50;;;3.10;;
56517;SDS011;42419;48.760;2.322;2022-11-25T09:26:25;4.27;;;3.10;;
56517;SDS011;42419;48.760;2.322;2022-11-25T09:28:52;6.47;;;3.10;;
56517;SDS011;42419;48.760;2.322;2022-11-25T09:31:18;5.60;;;3.20;;
56517;SDS011;42419;48.760;2.322;2022-11-25T09:33:44;6.50;;;3.17;;
56517;SDS011;42419;48.760;2.322;2022-11-25T09:36:11;5.50;;;3.17;;
56517;SDS011;42419;48.760;2.322;2022-11-25T09:38:37;7.20;;;3.40;;
56517;SDS011;42419;48.760;2.322;2022-11-25T09:41:16;6.30;;;3.73;;
56517;SDS011;42419;48.760;2.322;2022-11-25T09:44:55;5.83;;;2.67;;
56517;SDS011;42419;48.760;2.322;2022-11-25T09:55:41;4.10;;;3.00;;
56517;SDS011;42419;48.760;2.322;2022-11-25T09:58:31;5.13;;;3.30;;
56517;SDS011;42419;48.760;2.322;2022-11-25T10:00:59;4.83;;;3.13;;
56517;SDS011;42419;48.760;2.322;2022-11-25T10:08:47;6.43;;;3.20;;
56517;SDS011;42419;48.760;2.322;2022-11-25T10:11:23;3.90;;;2.90;;
56517;SDS011;42419;48.760;2.322;2022-11-25T10:16:59;4.63;;;3.50;;
56517;SDS011;42419;48.760;2.322;2022-11-25T10:22:15;8.73;;;2.93;;
56517;SDS011;42419;48.760;2.322;2022-11-25T10:24:50;5.80;;;3.10;;
56517;SDS011;42419;48.760;2.322;2022-11-25T10:27:22;6.60;;;3.53;;
56517;SDS011;42419;48.760;2.322;2022-11-25T10:30:02;4.77;;;3.10;;
56517;SDS011;42419;48.760;2.322;2022-11-25T10:32:32;4.40;;;2.80;;
56517;SDS011;42419;48.760;2.322;2022-11-25T10:35:06;5.03;;;3.37;;
56517;SDS011;42419;48.760;2.322;2022-11-25T10:37:40;5.53;;;3.07;;
56517;SDS011;42419;48.760;2.322;2022-11-25T10:40:17;5.03;;;3.40;;
56517;SDS011;42419;48.760;2.322;2022-11-25T10:42:43;5.93;;;2.47;;
56517;SDS011;42419;48.760;2.322;2022-11-25T10:45:09;5.23;;;3.30;;
56517;SDS011;42419;48.760;2.322;2022-11-25T10:47:37;5.03;;;2.93;;
56517;SDS011;42419;48.760;2.322;2022-11-25T10:52:53;4.70;;;3.20;;
56517;SDS011;42419;48.760;2.322;2022-11-25T10:55:29;5.70;;;3.00;;
56517;SDS011;42419;48.760;2.322;2022-11-25T10:57:57;5.53;;;2.50;;
56517;SDS011;42419;48.760;2.322;2022-11-25T11:00:34;5.20;;;2.83;;
56517;SDS011;42419;48.760;2.322;2022-11-25T11:03:15;3.60;;;2.53;;
56517;SDS011;42419;48.760;2.322;2022-11-25T11:05:50;7.13;;;3.00;;
56517;SDS011;42419;48.760;2.322;2022-11-25T11:08:22;5.83;;;3.13;;
56517;SDS011;42419;48.760;2.322;2022-11-25T11:13:42;5.27;;;3.00;;
56517;SDS011;42419;48.760;2.322;2022-11-25T11:19:28;5.60;;;2.97;;
56517;SDS011;42419;48.760;2.322;2022-11-25T11:21:57;5.67;;;2.53;;
56517;SDS011;42419;48.760;2.322;2022-11-25T11:24:39;4.70;;;2.87;;
56517;SDS011;42419;48.760;2.322;2022-11-25T11:27:15;4.13;;;2.67;;
56517;SDS011;42419;48.760;2.322;2022-11-25T11:29:45;6.37;;;3.47;;
56517;SDS011;42419;48.760;2.322;2022-11-25T11:32:19;6.47;;;3.23;;
56517;SDS011;42419;48.760;2.322;2022-11-25T11:40:11;4.23;;;2.73;;
56517;SDS011;42419;48.760;2.322;2022-11-25T11:56:18;4.63;;;3.20;;
56517;SDS011;42419;48.760;2.322;2022-11-25T12:04:22;4.23;;;2.70;;
56517;SDS011;42419;48.760;2.322;2022-11-25T12:07:17;5.13;;;2.87;;
56517;SDS011;42419;48.760;2.322;2022-11-25T12:09:52;3.93;;;2.50;;
56517;SDS011;42419;48.760;2.322;2022-11-25T12:12:22;4.70;;;2.70;;
56517;SDS011;42419;48.760;2.322;2022-11-25T12:15:00;5.97;;;2.47;;
56517;SDS011;42419;48.760;2.322;2022-11-25T12:17:41;6.03;;;3.80;;
56517;SDS011;42419;48.760;2.322;2022-11-25T12:22:54;5.43;;;2.83;;
56517;SDS011;42419;48.760;2.322;2022-11-25T12:25:29;3.87;;;2.90;;
56517;SDS011;42419;48.760;2.322;2022-11-25T12:36:32;5.87;;;3.60;;
56517;SDS011;42419;48.760;2.322;2022-11-25T12:39:20;3.80;;;2.80;;
56517;SDS011;42419;48.760;2.322;2022-11-25T12:41:59;4.50;;;2.83;;
56517;SDS011;42419;48.760;2.322;2022-11-25T12:44:30;5.03;;;2.83;;
56517;SDS011;42419;48.760;2.322;2022-11-25T12:47:01;5.43;;;3.23;;
56517;SDS011;42419;48.760;2.322;2022-11-25T12:49:27;5.60;;;2.90;;
56517;SDS011;42419;48.760;2.322;2022-11-25T12:54:49;6.03;;;3.23;;
56517;SDS011;42419;48.760;2.322;2022-11-25T12:57:56;4.30;;;2.40;;
56517;SDS011;42419;48.760;2.322;2022-11-25T13:09:24;5.77;;;3.30;;
56517;SDS011;42419;48.760;2.322;2022-11-25T13:17:15;7.30;;;3.03;;
56517;SDS011;42419;48.760;2.322;2022-11-25T13:19:47;7.77;;;3.20;;
56517;SDS011;42419;48.760;2.322;2022-11-25T13:24:45;4.30;;;2.37;;
56517;SDS011;42419;48.760;2.322;2022-11-25T13:30:04;6.47;;;3.03;;
56517;SDS011;42419;48.760;2.322;2022-11-25T13:32:50;5.20;;;2.70;;
56517;SDS011;42419;48.760;2.322;2022-11-25T13:37:48;3.57;;;2.47;;
56517;SDS011;42419;48.760;2.322;2022-11-25T13:42:55;4.17;;;2.60;;
56517;SDS011;42419;48.760;2.322;2022-11-25T13:45:34;6.23;;;2.87;;
56517;SDS011;42419;48.760;2.322;2022-11-25T13:48:12;4.40;;;2.83;;
56517;SDS011;42419;48.760;2.322;2022-11-25T13:50:39;6.30;;;3.27;;
56517;SDS011;42419;48.760;2.322;2022-11-25T13:53:07;3.20;;;2.53;;
56517;SDS011;42419;48.760;2.322;2022-11-25T13:55:45;4.73;;;2.80;;
56517;SDS011;42419;48.760;2.322;2022-11-25T13:58:24;5.60;;;3.10;;
56517;SDS011;42419;48.760;2.322;2022-11-25T14:03:43;4.43;;;2.50;;
56517;SDS011;42419;48.760;2.322;2022-11-25T14:09:09;3.20;;;2.10;;
56517;SDS011;42419;48.760;2.322;2022-11-25T14:14:55;4.47;;;2.60;;
56517;SDS011;42419;48.760;2.322;2022-11-25T14:26:10;6.40;;;3.00;;
56517;SDS011;42419;48.760;2.322;2022-11-25T14:28:42;4.77;;;2.73;;
56517;SDS011;42419;48.760;2.322;2022-11-25T14:31:19;3.97;;;2.77;;
56517;SDS011;42419;48.760;2.322;2022-11-25T14:33:54;5.63;;;2.57;;
56517;SDS011;42419;48.760;2.322;2022-11-25T14:36:26;5.00;;;3.10;;
56517;SDS011;42419;48.760;2.322;2022-11-25T14:38:56;3.53;;;2.33;;
56517;SDS011;42419;48.760;2.322;2022-11-25T14:41:34;3.83;;;2.67;;
56517;SDS011;42419;48.760;2.322;2022-11-25T14:44:21;4.60;;;2.67;;
56517;SDS011;42419;48.760;2.322;2022-11-25T14:46:51;6.73;;;3.17;;
56517;SDS011;42419;48.760;2.322;2022-11-25T14:49:22;3.53;;;2.47;;
56517;SDS011;42419;48.760;2.322;2022-11-25T14:51:48;6.80;;;2.77;;
56517;SDS011;42419;48.760;2.322;2022-11-25T14:54:17;5.10;;;2.93;;
56517;SDS011;42419;48.760;2.322;2022-11-25T14:56:43;4.77;;;2.90;;
56517;SDS011;42419;48.760;2.322;2022-11-25T14:59:11;8.00;;;2.97;;
56517;SDS011;42419;48.760;2.322;2022-11-25T15:01:38;5.10;;;3.20;;
56517;SDS011;42419;48.760;2.322;2022-11-25T15:06:49;5.20;;;3.20;;
56517;SDS011;42419;48.760;2.322;2022-11-25T15:09:30;5.20;;;2.90;;
56517;SDS011;42419;48.760;2.322;2022-11-25T15:12:01;4.13;;;2.33;;
56517;SDS011;42419;48.760;2.322;2022-11-25T15:14:30;6.83;;;3.10;;
56517;SDS011;42419;48.760;2.322;2022-11-25T15:17:05;3.63;;;2.43;;
56517;SDS011;42419;48.760;2.322;2022-11-25T15:19:46;4.83;;;3.27;;
56517;SDS011;42419;48.760;2.322;2022-11-25T15:22:12;4.40;;;2.20;;
56517;SDS011;42419;48.760;2.322;2022-11-25T15:24:43;4.77;;;2.70;;
56517;SDS011;42419;48.760;2.322;2022-11-25T15:27:20;5.13;;;2.57;;
56517;SDS011;42419;48.760;2.322;2022-11-25T15:29:49;4.90;;;2.70;;
56517;SDS011;42419;48.760;2.322;2022-11-25T15:32:23;4.67;;;3.00;;
56517;SDS011;42419;48.760;2.322;2022-11-25T15:34:51;4.27;;;2.87;;
56517;SDS011;42419;48.760;2.322;2022-11-25T15:37:18;4.63;;;2.67;;
56517;SDS011;42419;48.760;2.322;2022-11-25T15:39:44;5.33;;;2.83;;
56517;SDS011;42419;48.760;2.322;2022-11-25T15:44:49;4.10;;;2.53;;
56517;SDS011;42419;48.760;2.322;2022-11-25T15:47:23;5.20;;;2.60;;
56517;SDS011;42419;48.760;2.322;2022-11-25T15:49:59;5.90;;;3.00;;
56517;SDS011;42419;48.760;2.322;2022-11-25T15:52:27;4.33;;;2.53;;
56517;SDS011;42419;48.760;2.322;2022-11-25T15:54:59;5.63;;;3.20;;
56517;SDS011;42419;48.760;2.322;2022-11-25T15:57:28;4.70;;;2.90;;
56517;SDS011;42419;48.760;2.322;2022-11-25T16:10:30;7.27;;;2.97;;
56517;SDS011;42419;48.760;2.322;2022-11-25T16:15:53;4.90;;;3.00;;
56517;SDS011;42419;48.760;2.322;2022-11-25T16:21:07;5.47;;;3.10;;
56517;SDS011;42419;48.760;2.322;2022-11-25T16:23:34;3.93;;;2.53;;
56517;SDS011;42419;48.760;2.322;2022-11-25T16:28:36;4.50;;;3.10;;
56517;SDS011;42419;48.760;2.322;2022-11-25T16:31:03;5.27;;;2.70;;
56517;SDS011;42419;48.760;2.322;2022-11-25T16:33:29;9.03;;;3.07;;
56517;SDS011;42419;48.760;2.322;2022-11-25T16:35:54;5.00;;;3.07;;
56517;SDS011;42419;48.760;2.322;2022-11-25T16:38:19;4.07;;;2.67;;
56517;SDS011;42419;48.760;2.322;2022-11-25T16:40:45;7.20;;;3.30;;
56517;SDS011;42419;48.760;2.322;2022-11-25T16:43:28;5.13;;;3.20;;
56517;SDS011;42419;48.760;2.322;2022-11-25T16:45:54;4.77;;;2.70;;
56517;SDS011;42419;48.760;2.322;2022-11-25T16:48:20;5.40;;;2.67;;
56517;SDS011;42419;48.760;2.322;2022-11-25T16:50:48;4.37;;;2.70;;
56517;SDS011;42419;48.760;2.322;2022-11-25T16:53:14;4.37;;;2.43;;
56517;SDS011;42419;48.760;2.322;2022-11-25T16:55:41;6.10;;;3.27;;
56517;SDS011;42419;48.760;2.322;2022-11-25T16:58:12;4.67;;;2.80;;
56517;SDS011;42419;48.760;2.322;2022-11-25T17:00:43;6.80;;;2.77;;
56517;SDS011;42419;48.760;2.322;2022-11-25T17:03:13;4.57;;;3.17;;
56517;SDS011;42419;48.760;2.322;2022-11-25T17:05:39;7.23;;;3.27;;
56517;SDS011;42419;48.760;2.322;2022-11-25T17:08:04;4.70;;;2.73;;
56517;SDS011;42419;48.760;2.322;2022-11-25T17:10:30;5.17;;;2.70;;
56517;SDS011;42419;48.760;2.322;2022-11-25T17:12:55;4.50;;;3.10;;
56517;SDS011;42419;48.760;2.322;2022-11-25T17:15:23;7.03;;;3.10;;
56517;SDS011;42419;48.760;2.322;2022-11-25T17:17:54;7.10;;;3.20;;
56517;SDS011;42419;48.760;2.322;2022-11-25T17:20:20;4.73;;;2.80;;
56517;SDS011;42419;48.760;2.322;2022-11-25T17:22:48;4.60;;;2.80;;
56517;SDS011;42419;48.760;2.322;2022-11-25T17:25:14;5.03;;;3.50;;
56517;SDS011;42419;48.760;2.322;2022-11-25T17:27:40;5.83;;;2.50;;